^^
Saratoga-Weather Station Historical Data
Daily Summary for March 31, 2021 Units:  Both    English   Metric
Daily Weekly Monthly Yearly Custom
  High: Low: Average:
Temperature: 72 °F /  22.2 °C 56.8 °F /  13.8 °C 64.4 °F /  18 °C
Dew Point: 57.9 °F /  14.4 °C 51.3 °F /  10.7 °C 54.5 °F /  12.5 °C
Humidity: 84% 57% 71%
Wind Speed: 10.1mph /  16.3km/h - 2.2mph /  3.6km/h
Wind Gust: 12mph /  19.3km/h - -
Wind- - WSW
Pressure: 29.9 in /  1010.8 hPa 29.8 in /  1009.1 hPa -
Precipitation: 0 in /  0.0 mm    
Historical Graphs
 
 
Tabular Data for March 31, 2021
Time Temperature Dew Point Pressure Wind Wind Speed Wind Gust Humidity Rainfall Rate (Hourly) solar
00:03 62.6 °F /  17 °C 52.7 °F /  11.5 °C 29.8in /  1009.5hPa NE 0.9mph /  1.4km/h 2mph /  3.2km/h 70% 0in /  0.0mm 0 W/m2
00:08 62.8 °F /  17.1 °C 52.9 °F /  11.6 °C 29.8in /  1009.5hPa Calm   3mph /  4.8km/h 70% 0in /  0.0mm 0 W/m2
00:13 62.8 °F /  17.1 °C 52.5 °F /  11.4 °C 29.8in /  1009.5hPa NNE 0.9mph /  1.4km/h 2mph /  3.2km/h 69% 0in /  0.0mm 0 W/m2
00:18 62.8 °F /  17.1 °C 52.5 °F /  11.4 °C 29.8in /  1009.5hPa Calm   1mph /  1.6km/h 69% 0in /  0.0mm 0 W/m2
00:23 62.8 °F /  17.1 °C 52.5 °F /  11.4 °C 29.8in /  1009.5hPa Calm   1mph /  1.6km/h 69% 0in /  0.0mm 0 W/m2
00:28 62.8 °F /  17.1 °C 52.9 °F /  11.6 °C 29.8in /  1009.5hPa Calm   1mph /  1.6km/h 70% 0in /  0.0mm 0 W/m2
00:33 62.4 °F /  16.9 °C 52.5 °F /  11.4 °C 29.8in /  1009.5hPa Calm   1mph /  1.6km/h 70% 0in /  0.0mm 0 W/m2
00:38 62.2 °F /  16.8 °C 52 °F /  11.1 °C 29.8in /  1009.5hPa Calm   2mph /  3.2km/h 69% 0in /  0.0mm 0 W/m2
00:43 62.2 °F /  16.8 °C 52 °F /  11.1 °C 29.8in /  1009.5hPa South 0.9mph /  1.4km/h 2mph /  3.2km/h 69% 0in /  0.0mm 0 W/m2
00:48 62.1 °F /  16.7 °C 52.2 °F /  11.2 °C 29.8in /  1009.5hPa SSE 0.9mph /  1.4km/h 4mph /  6.4km/h 70% 0in /  0.0mm 0 W/m2
00:53 61.9 °F /  16.6 °C 52.3 °F /  11.3 °C 29.8in /  1009.5hPa ESE 0.9mph /  1.4km/h 2mph /  3.2km/h 71% 0in /  0.0mm 0 W/m2
00:58 61.9 °F /  16.6 °C 52.3 °F /  11.3 °C 29.8in /  1009.5hPa ESE 0.9mph /  1.4km/h 3mph /  4.8km/h 71% 0in /  0.0mm 0 W/m2
01:03 61.5 °F /  16.4 °C 52 °F /  11.1 °C 29.8in /  1009.8hPa NNW 0.9mph /  1.4km/h 2mph /  3.2km/h 71% 0in /  0.0mm 0 W/m2
01:08 61.5 °F /  16.4 °C 52 °F /  11.1 °C 29.8in /  1009.5hPa Calm   3mph /  4.8km/h 71% 0in /  0.0mm 0 W/m2
01:13 61.3 °F /  16.3 °C 51.8 °F /  11 °C 29.8in /  1009.8hPa South 2mph /  3.2km/h 2mph /  3.2km/h 71% 0in /  0.0mm 0 W/m2
01:18 61.3 °F /  16.3 °C 52.2 °F /  11.2 °C 29.8in /  1009.8hPa South 2mph /  3.2km/h 3mph /  4.8km/h 72% 0in /  0.0mm 0 W/m2
01:23 61.2 °F /  16.2 °C 52 °F /  11.1 °C 29.8in /  1009.8hPa ESE 0.9mph /  1.4km/h 1mph /  1.6km/h 72% 0in /  0.0mm 0 W/m2
01:28 61 °F /  16.1 °C 52 °F /  11.1 °C 29.8in /  1010.2hPa ENE 2mph /  3.2km/h 4mph /  6.4km/h 72% 0in /  0.0mm 0 W/m2
01:33 60.8 °F /  16 °C 52.2 °F /  11.2 °C 29.8in /  1010.2hPa Calm   3mph /  4.8km/h 73% 0in /  0.0mm 0 W/m2
01:38 60.6 °F /  15.9 °C 52 °F /  11.1 °C 29.8in /  1010.2hPa SSE 2mph /  3.2km/h 4mph /  6.4km/h 73% 0in /  0.0mm 0 W/m2
01:43 60.4 °F /  15.8 °C 51.8 °F /  11 °C 29.8in /  1010.2hPa Calm   1mph /  1.6km/h 73% 0in /  0.0mm 0 W/m2
01:48 60.4 °F /  15.8 °C 51.8 °F /  11 °C 29.8in /  1010.2hPa Calm   1mph /  1.6km/h 73% 0in /  0.0mm 0 W/m2
01:53 60.3 °F /  15.7 °C 52 °F /  11.1 °C 29.8in /  1010.2hPa Calm   2mph /  3.2km/h 74% 0in /  0.0mm 0 W/m2
02:10 59.5 °F /  15.3 °C 51.6 °F /  10.9 °C 29.8in /  1010.2hPa Calm   1mph /  1.6km/h 75% 0in /  0.0mm 0 W/m2
02:15 59.5 °F /  15.3 °C 52 °F /  11.1 °C 29.8in /  1010.2hPa Calm   1mph /  1.6km/h 76% 0in /  0.0mm 0 W/m2
02:20 59.4 °F /  15.2 °C 51.8 °F /  11 °C 29.8in /  1010.2hPa Calm   2mph /  3.2km/h 76% 0in /  0.0mm 0 W/m2
02:25 59.4 °F /  15.2 °C 51.8 °F /  11 °C 29.8in /  1010.2hPa Calm   2mph /  3.2km/h 76% 0in /  0.0mm 0 W/m2
02:31 59.2 °F /  15.1 °C 51.6 °F /  10.9 °C 29.8in /  1010.2hPa ESE 0.9mph /  1.4km/h 2mph /  3.2km/h 76% 0in /  0.0mm 0 W/m2
02:36 59.2 °F /  15.1 °C 52 °F /  11.1 °C 29.8in /  1010.2hPa Calm   1mph /  1.6km/h 77% 0in /  0.0mm 0 W/m2
02:41 59 °F /  15 °C 51.8 °F /  11 °C 29.8in /  1010.2hPa Calm   1mph /  1.6km/h 77% 0in /  0.0mm 0 W/m2
02:46 58.8 °F /  14.9 °C 51.6 °F /  10.9 °C 29.8in /  1010.2hPa NE 2mph /  3.2km/h 3mph /  4.8km/h 77% 0in /  0.0mm 0 W/m2
02:51 58.6 °F /  14.8 °C 51.8 °F /  11 °C 29.8in /  1010.2hPa WNW 2mph /  3.2km/h 2mph /  3.2km/h 78% 0in /  0.0mm 0 W/m2
02:56 58.6 °F /  14.8 °C 51.8 °F /  11 °C 29.8in /  1010.2hPa Calm   2mph /  3.2km/h 78% 0in /  0.0mm 0 W/m2
03:01 58.6 °F /  14.8 °C 51.8 °F /  11 °C 29.8in /  1010.2hPa WSW 2.9mph /  4.7km/h 3mph /  4.8km/h 78% 0in /  0.0mm 0 W/m2
03:06 58.6 °F /  14.8 °C 51.8 °F /  11 °C 29.8in /  1010.2hPa SE 0.9mph /  1.4km/h 3mph /  4.8km/h 78% 0in /  0.0mm 0 W/m2
03:11 58.5 °F /  14.7 °C 51.6 °F /  10.9 °C 29.8in /  1010.2hPa NNE 0.9mph /  1.4km/h 2mph /  3.2km/h 78% 0in /  0.0mm 0 W/m2
03:16 58.3 °F /  14.6 °C 51.8 °F /  11 °C 29.8in /  1010.2hPa Calm   2mph /  3.2km/h 79% 0in /  0.0mm 0 W/m2
03:21 58.3 °F /  14.6 °C 51.8 °F /  11 °C 29.8in /  1010.2hPa NW 4mph /  6.4km/h 4mph /  6.4km/h 79% 0in /  0.0mm 0 W/m2
03:26 58.1 °F /  14.5 °C 51.6 °F /  10.9 °C 29.8in /  1010.2hPa WSW 0.9mph /  1.4km/h 4mph /  6.4km/h 79% 0in /  0.0mm 0 W/m2
03:31 57.9 °F /  14.4 °C 51.4 °F /  10.8 °C 29.8in /  1010.2hPa Calm   4mph /  6.4km/h 79% 0in /  0.0mm 0 W/m2
03:36 57.9 °F /  14.4 °C 51.8 °F /  11 °C 29.8in /  1010.2hPa NNE 2mph /  3.2km/h 4mph /  6.4km/h 80% 0in /  0.0mm 0 W/m2
03:41 57.9 °F /  14.4 °C 51.8 °F /  11 °C 29.8in /  1010.2hPa Calm   2mph /  3.2km/h 80% 0in /  0.0mm 0 W/m2
03:46 57.7 °F /  14.3 °C 51.6 °F /  10.9 °C 29.8in /  1010.2hPa WSW 2mph /  3.2km/h 4mph /  6.4km/h 80% 0in /  0.0mm 0 W/m2
03:51 57.7 °F /  14.3 °C 51.6 °F /  10.9 °C 29.8in /  1010.2hPa North 2.9mph /  4.7km/h 3mph /  4.8km/h 80% 0in /  0.0mm 0 W/m2
03:56 57.7 °F /  14.3 °C 51.6 °F /  10.9 °C 29.8in /  1010.2hPa SSE 0.9mph /  1.4km/h 3mph /  4.8km/h 80% 0in /  0.0mm 0 W/m2
04:01 57.6 °F /  14.2 °C 51.4 °F /  10.8 °C 29.8in /  1010.2hPa West 2.9mph /  4.7km/h 4mph /  6.4km/h 80% 0in /  0.0mm 0 W/m2
04:06 57.6 °F /  14.2 °C 51.4 °F /  10.8 °C 29.8in /  1010.2hPa SSW 0.9mph /  1.4km/h 5mph /  8km/h 80% 0in /  0.0mm 0 W/m2
04:11 57.6 °F /  14.2 °C 51.4 °F /  10.8 °C 29.8in /  1010.2hPa NNW 2mph /  3.2km/h 6mph /  9.7km/h 80% 0in /  0.0mm 0 W/m2
04:16 57.4 °F /  14.1 °C 51.6 °F /  10.9 °C 29.8in /  1010.2hPa SE 0.9mph /  1.4km/h 2mph /  3.2km/h 81% 0in /  0.0mm 0 W/m2
04:21 57.4 °F /  14.1 °C 51.6 °F /  10.9 °C 29.8in /  1010.2hPa Calm   3mph /  4.8km/h 81% 0in /  0.0mm 0 W/m2
04:26 57.2 °F /  14 °C 51.4 °F /  10.8 °C 29.8in /  1010.2hPa West 0.9mph /  1.4km/h 6mph /  9.7km/h 81% 0in /  0.0mm 0 W/m2
04:31 57 °F /  13.9 °C 51.3 °F /  10.7 °C 29.8in /  1010.2hPa Calm   2mph /  3.2km/h 81% 0in /  0.0mm 0 W/m2
04:47 57.2 °F /  14 °C 51.4 °F /  10.8 °C 29.8in /  1010.2hPa NW 0.9mph /  1.4km/h 2mph /  3.2km/h 81% 0in /  0.0mm 0 W/m2
04:52 57.2 °F /  14 °C 51.4 °F /  10.8 °C 29.8in /  1010.2hPa SE 4mph /  6.4km/h 4mph /  6.4km/h 81% 0in /  0.0mm 0 W/m2
04:57 57.2 °F /  14 °C 51.8 °F /  11 °C 29.8in /  1010.2hPa SSE 2mph /  3.2km/h 2mph /  3.2km/h 82% 0in /  0.0mm 0 W/m2
05:15 57.4 °F /  14.1 °C 51.6 °F /  10.9 °C 29.8in /  1009.8hPa West 0.9mph /  1.4km/h 1mph /  1.6km/h 81% 0in /  0.0mm 0 W/m2
05:20 57.6 °F /  14.2 °C 51.8 °F /  11 °C 29.8in /  1009.8hPa Calm   2mph /  3.2km/h 81% 0in /  0.0mm 0 W/m2
05:25 57.6 °F /  14.2 °C 51.8 °F /  11 °C 29.8in /  1009.8hPa WNW 2.9mph /  4.7km/h 4mph /  6.4km/h 81% 0in /  0.0mm 0 W/m2
05:30 57.6 °F /  14.2 °C 51.8 °F /  11 °C 29.8in /  1009.8hPa Calm   1mph /  1.6km/h 81% 0in /  0.0mm 0 W/m2
05:35 57.6 °F /  14.2 °C 51.8 °F /  11 °C 29.8in /  1010.2hPa West 4mph /  6.4km/h 4mph /  6.4km/h 81% 0in /  0.0mm 0 W/m2
05:40 57.6 °F /  14.2 °C 52.2 °F /  11.2 °C 29.8in /  1009.8hPa NE 0.9mph /  1.4km/h 3mph /  4.8km/h 82% 0in /  0.0mm 0 W/m2
05:45 57.6 °F /  14.2 °C 52.2 °F /  11.2 °C 29.8in /  1010.2hPa Calm   2mph /  3.2km/h 82% 0in /  0.0mm 0 W/m2
05:50 57.4 °F /  14.1 °C 52 °F /  11.1 °C 29.8in /  1009.8hPa Calm   1mph /  1.6km/h 82% 0in /  0.0mm 0 W/m2
05:55 57.6 °F /  14.2 °C 52.2 °F /  11.2 °C 29.8in /  1010.2hPa Calm   1mph /  1.6km/h 82% 0in /  0.0mm 0 W/m2
06:00 57.6 °F /  14.2 °C 52.2 °F /  11.2 °C 29.8in /  1009.8hPa SW 2mph /  3.2km/h 2mph /  3.2km/h 82% 0in /  0.0mm 0 W/m2
06:05 57.6 °F /  14.2 °C 52.2 °F /  11.2 °C 29.8in /  1009.8hPa WSW 2mph /  3.2km/h 2mph /  3.2km/h 82% 0in /  0.0mm 0 W/m2
06:10 57.4 °F /  14.1 °C 52 °F /  11.1 °C 29.8in /  1010.2hPa West 0.9mph /  1.4km/h 1mph /  1.6km/h 82% 0in /  0.0mm 5 W/m2
06:15 57.4 °F /  14.1 °C 52 °F /  11.1 °C 29.8in /  1010.2hPa Calm   1mph /  1.6km/h 82% 0in /  0.0mm 7 W/m2
06:20 57.2 °F /  14 °C 51.8 °F /  11 °C 29.8in /  1010.2hPa WSW 0.9mph /  1.4km/h 3mph /  4.8km/h 82% 0in /  0.0mm 9 W/m2
06:25 57 °F /  13.9 °C 52 °F /  11.1 °C 29.8in /  1010.2hPa Calm   1mph /  1.6km/h 83% 0in /  0.0mm 11 W/m2
06:30 57 °F /  13.9 °C 52 °F /  11.1 °C 29.8in /  1010.2hPa Calm   1mph /  1.6km/h 83% 0in /  0.0mm 14 W/m2
06:51 56.8 °F /  13.8 °C 52 °F /  11.1 °C 29.8in /  1010.2hPa SSW 0.9mph /  1.4km/h 3mph /  4.8km/h 84% 0in /  0.0mm 23 W/m2
06:56 56.8 °F /  13.8 °C 52 °F /  11.1 °C 29.8in /  1010.2hPa North 0.9mph /  1.4km/h 2mph /  3.2km/h 84% 0in /  0.0mm 25 W/m2
07:01 56.8 °F /  13.8 °C 52 °F /  11.1 °C 29.8in /  1010.2hPa Calm   1mph /  1.6km/h 84% 0in /  0.0mm 26 W/m2
07:21 57.2 °F /  14 °C 52.3 °F /  11.3 °C 29.8in /  1010.5hPa WSW 2mph /  3.2km/h 2mph /  3.2km/h 84% 0in /  0.0mm 35 W/m2
07:26 57.4 °F /  14.1 °C 52.5 °F /  11.4 °C 29.8in /  1010.5hPa WNW 0.9mph /  1.4km/h 4mph /  6.4km/h 84% 0in /  0.0mm 37 W/m2
07:31 57.4 °F /  14.1 °C 52.5 °F /  11.4 °C 29.8in /  1010.5hPa WNW 2mph /  3.2km/h 3mph /  4.8km/h 84% 0in /  0.0mm 37 W/m2
07:50 57.9 °F /  14.4 °C 52.7 °F /  11.5 °C 29.8in /  1010.5hPa NNW 2.9mph /  4.7km/h 3mph /  4.8km/h 83% 0in /  0.0mm 42 W/m2
07:55 58.3 °F /  14.6 °C 53.4 °F /  11.9 °C 29.8in /  1010.5hPa Calm   3mph /  4.8km/h 84% 0in /  0.0mm 46 W/m2
08:00 58.3 °F /  14.6 °C 53.1 °F /  11.7 °C 29.8in /  1010.2hPa North 2mph /  3.2km/h 4mph /  6.4km/h 83% 0in /  0.0mm 58 W/m2
08:05 58.6 °F /  14.8 °C 53.4 °F /  11.9 °C 29.8in /  1010.2hPa NW 2.9mph /  4.7km/h 4mph /  6.4km/h 83% 0in /  0.0mm 51 W/m2
08:25 60.1 °F /  15.6 °C 54 °F /  12.2 °C 29.8in /  1010.2hPa WNW 2mph /  3.2km/h 4mph /  6.4km/h 80% 0in /  0.0mm 58 W/m2
08:30 60.3 °F /  15.7 °C 54.1 °F /  12.3 °C 29.8in /  1010.5hPa SW 6.9mph /  11.1km/h 7mph /  11.3km/h 80% 0in /  0.0mm 62 W/m2
08:35 60.4 °F /  15.8 °C 54.3 °F /  12.4 °C 29.8in /  1010.5hPa WNW 0.9mph /  1.4km/h 4mph /  6.4km/h 80% 0in /  0.0mm 65 W/m2
08:40 60.6 °F /  15.9 °C 54.5 °F /  12.5 °C 29.8in /  1010.5hPa WSW 2.9mph /  4.7km/h 7mph /  11.3km/h 80% 0in /  0.0mm 74 W/m2
08:45 60.8 °F /  16 °C 54.3 °F /  12.4 °C 29.8in /  1010.5hPa NW 0.9mph /  1.4km/h 6mph /  9.7km/h 79% 0in /  0.0mm 65 W/m2
08:50 61 °F /  16.1 °C 54.7 °F /  12.6 °C 29.8in /  1010.5hPa SW 2mph /  3.2km/h 7mph /  11.3km/h 80% 0in /  0.0mm 62 W/m2
08:55 61 °F /  16.1 °C 54.5 °F /  12.5 °C 29.8in /  1010.5hPa WNW 4.9mph /  7.9km/h 8mph /  12.9km/h 79% 0in /  0.0mm 118 W/m2
09:00 61.2 °F /  16.2 °C 54.9 °F /  12.7 °C 29.8in /  1010.5hPa WNW 2mph /  3.2km/h 6mph /  9.7km/h 80% 0in /  0.0mm 299 W/m2
09:05 61.3 °F /  16.3 °C 54.9 °F /  12.7 °C 29.8in /  1010.5hPa NW 2.9mph /  4.7km/h 8mph /  12.9km/h 79% 0in /  0.0mm 374 W/m2
09:10 61.7 °F /  16.5 °C 54.9 °F /  12.7 °C 29.8in /  1010.5hPa WNW 2mph /  3.2km/h 6mph /  9.7km/h 78% 0in /  0.0mm 383 W/m2
09:15 61.9 °F /  16.6 °C 54.9 °F /  12.7 °C 29.8in /  1010.5hPa West 6.9mph /  11.1km/h 9mph /  14.5km/h 78% 0in /  0.0mm 369 W/m2
09:20 62.2 °F /  16.8 °C 55.2 °F /  12.9 °C 29.8in /  1010.5hPa WNW 2.9mph /  4.7km/h 4mph /  6.4km/h 78% 0in /  0.0mm 506 W/m2
09:25 62.2 °F /  16.8 °C 54.9 °F /  12.7 °C 29.8in /  1010.5hPa WNW 4.9mph /  7.9km/h 9mph /  14.5km/h 77% 0in /  0.0mm 480 W/m2
09:30 62.2 °F /  16.8 °C 55.2 °F /  12.9 °C 29.8in /  1010.5hPa West 2mph /  3.2km/h 8mph /  12.9km/h 78% 0in /  0.0mm 489 W/m2
09:35 62.4 °F /  16.9 °C 55 °F /  12.8 °C 29.8in /  1010.5hPa SW 2mph /  3.2km/h 8mph /  12.9km/h 77% 0in /  0.0mm 483 W/m2
09:40 62.6 °F /  17 °C 55.6 °F /  13.1 °C 29.8in /  1010.5hPa ENE 6mph /  9.7km/h 6mph /  9.7km/h 78% 0in /  0.0mm 494 W/m2
09:45 63 °F /  17.2 °C 55.6 °F /  13.1 °C 29.8in /  1010.5hPa West 2.9mph /  4.7km/h 6mph /  9.7km/h 77% 0in /  0.0mm 533 W/m2
09:50 63.1 °F /  17.3 °C 55.4 °F /  13 °C 29.8in /  1010.5hPa West 10.1mph /  16.3km/h 11mph /  17.7km/h 76% 0in /  0.0mm 485 W/m2
09:55 63.3 °F /  17.4 °C 55.2 °F /  12.9 °C 29.8in /  1010.5hPa WSW 10.1mph /  16.3km/h 10mph /  16.1km/h 75% 0in /  0.0mm 148 W/m2
10:01 63.3 °F /  17.4 °C 54.9 °F /  12.7 °C 29.8in /  1010.5hPa West 2.9mph /  4.7km/h 11mph /  17.7km/h 74% 0in /  0.0mm 163 W/m2
10:06 63.1 °F /  17.3 °C 55 °F /  12.8 °C 29.8in /  1010.5hPa NW 2.9mph /  4.7km/h 8mph /  12.9km/h 75% 0in /  0.0mm 599 W/m2
10:11 63.9 °F /  17.7 °C 55.4 °F /  13 °C 29.8in /  1010.5hPa NW 4mph /  6.4km/h 10mph /  16.1km/h 74% 0in /  0.0mm 596 W/m2
10:16 64 °F /  17.8 °C 55.2 °F /  12.9 °C 29.8in /  1010.5hPa WSW 4mph /  6.4km/h 8mph /  12.9km/h 73% 0in /  0.0mm 221 W/m2
10:21 64 °F /  17.8 °C 54.9 °F /  12.7 °C 29.9in /  1010.8hPa West 6.9mph /  11.1km/h 11mph /  17.7km/h 72% 0in /  0.0mm 162 W/m2
10:26 64 °F /  17.8 °C 55.2 °F /  12.9 °C 29.8in /  1010.5hPa WNW 4.9mph /  7.9km/h 7mph /  11.3km/h 73% 0in /  0.0mm 682 W/m2
10:43 64 °F /  17.8 °C 55.2 °F /  12.9 °C 29.8in /  1010.5hPa WNW 0.9mph /  1.4km/h 3mph /  4.8km/h 73% 0in /  0.0mm 149 W/m2
10:48 64.6 °F /  18.1 °C 55 °F /  12.8 °C 29.9in /  1010.8hPa SSW 2mph /  3.2km/h 6mph /  9.7km/h 71% 0in /  0.0mm 712 W/m2
10:53 65.1 °F /  18.4 °C 55 °F /  12.8 °C 29.9in /  1010.8hPa Calm   10mph /  16.1km/h 70% 0in /  0.0mm 216 W/m2
10:58 65.5 °F /  18.6 °C 55.8 °F /  13.2 °C 29.8in /  1010.5hPa WSW 2.9mph /  4.7km/h 9mph /  14.5km/h 71% 0in /  0.0mm 728 W/m2
11:03 65.5 °F /  18.6 °C 55.4 °F /  13 °C 29.8in /  1010.5hPa West 0.9mph /  1.4km/h 7mph /  11.3km/h 70% 0in /  0.0mm 350 W/m2
11:08 65.7 °F /  18.7 °C 55.6 °F /  13.1 °C 29.9in /  1010.8hPa WNW 4mph /  6.4km/h 8mph /  12.9km/h 70% 0in /  0.0mm 821 W/m2
11:13 65.8 °F /  18.8 °C 55.4 °F /  13 °C 29.9in /  1010.8hPa WNW 4mph /  6.4km/h 10mph /  16.1km/h 69% 0in /  0.0mm 394 W/m2
11:29 66.2 °F /  19 °C 55.8 °F /  13.2 °C 29.9in /  1010.8hPa NW 8.1mph /  13km/h 9mph /  14.5km/h 69% 0in /  0.0mm 350 W/m2
11:34 66.4 °F /  19.1 °C 55.9 °F /  13.3 °C 29.9in /  1010.8hPa West 2mph /  3.2km/h 6mph /  9.7km/h 69% 0in /  0.0mm 281 W/m2
11:39 66.4 °F /  19.1 °C 55.9 °F /  13.3 °C 29.9in /  1010.8hPa SW 6.9mph /  11.1km/h 7mph /  11.3km/h 69% 0in /  0.0mm 469 W/m2
11:44 66.4 °F /  19.1 °C 55.9 °F /  13.3 °C 29.9in /  1010.8hPa WNW 4mph /  6.4km/h 8mph /  12.9km/h 69% 0in /  0.0mm 306 W/m2
11:49 66.4 °F /  19.1 °C 55.9 °F /  13.3 °C 29.9in /  1010.8hPa WNW 2mph /  3.2km/h 10mph /  16.1km/h 69% 0in /  0.0mm 294 W/m2
11:54 66.6 °F /  19.2 °C 55.2 °F /  12.9 °C 29.9in /  1010.8hPa NW 6mph /  9.7km/h 9mph /  14.5km/h 67% 0in /  0.0mm 216 W/m2
11:59 66.6 °F /  19.2 °C 55.2 °F /  12.9 °C 29.9in /  1010.8hPa WNW 4.9mph /  7.9km/h 8mph /  12.9km/h 67% 0in /  0.0mm 232 W/m2
12:04 66.4 °F /  19.1 °C 55 °F /  12.8 °C 29.9in /  1010.8hPa WNW 0.9mph /  1.4km/h 2mph /  3.2km/h 67% 0in /  0.0mm 199 W/m2
12:09 66 °F /  18.9 °C 55.2 °F /  12.9 °C 29.9in /  1010.8hPa NW 6.9mph /  11.1km/h 7mph /  11.3km/h 68% 0in /  0.0mm 362 W/m2
12:14 66.2 °F /  19 °C 55.4 °F /  13 °C 29.9in /  1010.8hPa NNW 4.9mph /  7.9km/h 7mph /  11.3km/h 68% 0in /  0.0mm 315 W/m2
12:19 66.2 °F /  19 °C 55.4 °F /  13 °C 29.8in /  1010.5hPa WNW 2mph /  3.2km/h 5mph /  8km/h 68% 0in /  0.0mm 288 W/m2
12:24 66.6 °F /  19.2 °C 55.2 °F /  12.9 °C 29.9in /  1010.8hPa West 2mph /  3.2km/h 4mph /  6.4km/h 67% 0in /  0.0mm 207 W/m2
12:29 67.5 °F /  19.7 °C 55.8 °F /  13.2 °C 29.8in /  1010.5hPa West 6.9mph /  11.1km/h 9mph /  14.5km/h 66% 0in /  0.0mm 1037 W/m2
12:34 68.2 °F /  20.1 °C 56.3 °F /  13.5 °C 29.8in /  1010.5hPa NW 2.9mph /  4.7km/h 9mph /  14.5km/h 66% 0in /  0.0mm 1069 W/m2
12:39 68.5 °F /  20.3 °C 55.4 °F /  13 °C 29.8in /  1010.5hPa SW 4mph /  6.4km/h 11mph /  17.7km/h 63% 0in /  0.0mm 330 W/m2
12:44 68.4 °F /  20.2 °C 55.8 °F /  13.2 °C 29.8in /  1010.5hPa WNW 2mph /  3.2km/h 6mph /  9.7km/h 64% 0in /  0.0mm 1079 W/m2
12:49 68.5 °F /  20.3 °C 55.9 °F /  13.3 °C 29.8in /  1010.5hPa NW 0.9mph /  1.4km/h 6mph /  9.7km/h 64% 0in /  0.0mm 401 W/m2
12:54 68.4 °F /  20.2 °C 55.2 °F /  12.9 °C 29.8in /  1010.5hPa WSW 8.1mph /  13km/h 8mph /  12.9km/h 63% 0in /  0.0mm 513 W/m2
13:15 69.6 °F /  20.9 °C 55.9 °F /  13.3 °C 29.8in /  1010.5hPa ESE 2.9mph /  4.7km/h 5mph /  8km/h 62% 0in /  0.0mm 1060 W/m2
13:20 70.3 °F /  21.3 °C 57.2 °F /  14 °C 29.8in /  1010.5hPa NW 2.9mph /  4.7km/h 5mph /  8km/h 63% 0in /  0.0mm 1032 W/m2
13:25 70.3 °F /  21.3 °C 55.8 °F /  13.2 °C 29.8in /  1010.5hPa WNW 2.9mph /  4.7km/h 6mph /  9.7km/h 60% 0in /  0.0mm 1130 W/m2
13:30 70.2 °F /  21.2 °C 56.5 °F /  13.6 °C 29.8in /  1010.5hPa SW 6mph /  9.7km/h 8mph /  12.9km/h 62% 0in /  0.0mm 272 W/m2
13:35 69.4 °F /  20.8 °C 55.4 °F /  13 °C 29.8in /  1010.5hPa NNW 4mph /  6.4km/h 7mph /  11.3km/h 61% 0in /  0.0mm 301 W/m2
13:40 68.7 °F /  20.4 °C 55.2 °F /  12.9 °C 29.8in /  1010.5hPa WNW 2.9mph /  4.7km/h 6mph /  9.7km/h 62% 0in /  0.0mm 981 W/m2
13:45 69.1 °F /  20.6 °C 55.9 °F /  13.3 °C 29.8in /  1010.5hPa NW 2.9mph /  4.7km/h 8mph /  12.9km/h 63% 0in /  0.0mm 1053 W/m2
13:50 69.3 °F /  20.7 °C 55.8 °F /  13.2 °C 29.8in /  1010.5hPa WSW 0.9mph /  1.4km/h 8mph /  12.9km/h 62% 0in /  0.0mm 1072 W/m2
13:55 69.3 °F /  20.7 °C 55.2 °F /  12.9 °C 29.8in /  1010.5hPa WSW 2.9mph /  4.7km/h 5mph /  8km/h 61% 0in /  0.0mm 429 W/m2
14:00 69.4 °F /  20.8 °C 56.3 °F /  13.5 °C 29.8in /  1010.5hPa NNW 2.9mph /  4.7km/h 4mph /  6.4km/h 63% 0in /  0.0mm 424 W/m2
14:05 69.6 °F /  20.9 °C 55.6 °F /  13.1 °C 29.8in /  1010.5hPa WNW 4.9mph /  7.9km/h 11mph /  17.7km/h 61% 0in /  0.0mm 513 W/m2
14:10 69.4 °F /  20.8 °C 54.9 °F /  12.7 °C 29.8in /  1010.5hPa West 8.1mph /  13km/h 9mph /  14.5km/h 60% 0in /  0.0mm 939 W/m2
14:15 69.8 °F /  21 °C 55.2 °F /  12.9 °C 29.8in /  1010.2hPa WSW 4mph /  6.4km/h 11mph /  17.7km/h 60% 0in /  0.0mm 847 W/m2
14:20 70.3 °F /  21.3 °C 55.4 °F /  13 °C 29.8in /  1010.2hPa West 4mph /  6.4km/h 6mph /  9.7km/h 59% 0in /  0.0mm 316 W/m2
14:25 70.2 °F /  21.2 °C 54.7 °F /  12.6 °C 29.8in /  1010.5hPa WSW 2mph /  3.2km/h 12mph /  19.3km/h 58% 0in /  0.0mm 237 W/m2
14:30 69.6 °F /  20.9 °C 55 °F /  12.8 °C 29.8in /  1010.2hPa NW 2.9mph /  4.7km/h 5mph /  8km/h 60% 0in /  0.0mm 171 W/m2
14:35 69.4 °F /  20.8 °C 55.4 °F /  13 °C 29.8in /  1010.2hPa West 4mph /  6.4km/h 12mph /  19.3km/h 61% 0in /  0.0mm 243 W/m2
14:40 69.3 °F /  20.7 °C 55.2 °F /  12.9 °C 29.8in /  1010.2hPa West 2.9mph /  4.7km/h 7mph /  11.3km/h 61% 0in /  0.0mm 420 W/m2
14:45 70 °F /  21.1 °C 56.3 °F /  13.5 °C 29.8in /  1010.2hPa West 6mph /  9.7km/h 11mph /  17.7km/h 62% 0in /  0.0mm 591 W/m2
14:50 70 °F /  21.1 °C 55.4 °F /  13 °C 29.8in /  1010.2hPa WSW 4mph /  6.4km/h 6mph /  9.7km/h 60% 0in /  0.0mm 431 W/m2
14:55 70.2 °F /  21.2 °C 55.2 °F /  12.9 °C 29.8in /  1010.2hPa WNW 2.9mph /  4.7km/h 11mph /  17.7km/h 59% 0in /  0.0mm 371 W/m2
15:00 70.3 °F /  21.3 °C 55.4 °F /  13 °C 29.8in /  1010.2hPa NW 2.9mph /  4.7km/h 7mph /  11.3km/h 59% 0in /  0.0mm 366 W/m2
15:05 70.7 °F /  21.5 °C 56.7 °F /  13.7 °C 29.8in /  1010.2hPa WNW 4.9mph /  7.9km/h 6mph /  9.7km/h 61% 0in /  0.0mm 390 W/m2
15:23 69.6 °F /  20.9 °C 55.9 °F /  13.3 °C 29.8in /  1010.2hPa WSW 4.9mph /  7.9km/h 8mph /  12.9km/h 62% 0in /  0.0mm 253 W/m2
15:28 69.6 °F /  20.9 °C 56.8 °F /  13.8 °C 29.8in /  1010.2hPa WNW 6.9mph /  11.1km/h 7mph /  11.3km/h 64% 0in /  0.0mm 269 W/m2
15:34 69.6 °F /  20.9 °C 56.5 °F /  13.6 °C 29.8in /  1010.2hPa SW 2.9mph /  4.7km/h 4mph /  6.4km/h 63% 0in /  0.0mm 339 W/m2
15:39 70.3 °F /  21.3 °C 56.3 °F /  13.5 °C 29.8in /  1010.2hPa WNW 4.9mph /  7.9km/h 6mph /  9.7km/h 61% 0in /  0.0mm 232 W/m2
15:44 70.5 °F /  21.4 °C 56.5 °F /  13.6 °C 29.8in /  1010.2hPa WSW 4mph /  6.4km/h 6mph /  9.7km/h 61% 0in /  0.0mm 243 W/m2
15:49 70.5 °F /  21.4 °C 55.9 °F /  13.3 °C 29.8in /  1010.2hPa West 4mph /  6.4km/h 6mph /  9.7km/h 60% 0in /  0.0mm 840 W/m2
15:54 71.2 °F /  21.8 °C 55.8 °F /  13.2 °C 29.8in /  1010.2hPa WSW 2.9mph /  4.7km/h 9mph /  14.5km/h 58% 0in /  0.0mm 831 W/m2
15:59 71.4 °F /  21.9 °C 55.9 °F /  13.3 °C 29.8in /  1010.2hPa WSW 4mph /  6.4km/h 11mph /  17.7km/h 58% 0in /  0.0mm 837 W/m2
16:04 71.8 °F /  22.1 °C 56.1 °F /  13.4 °C 29.8in /  1010.2hPa WNW 10.1mph /  16.3km/h 10mph /  16.1km/h 58% 0in /  0.0mm 837 W/m2
16:09 71.2 °F /  21.8 °C 55.8 °F /  13.2 °C 29.8in /  1010.2hPa NW 6.9mph /  11.1km/h 11mph /  17.7km/h 58% 0in /  0.0mm 795 W/m2
16:14 71.2 °F /  21.8 °C 56.7 °F /  13.7 °C 29.8in /  1010.2hPa NW 2.9mph /  4.7km/h 4mph /  6.4km/h 60% 0in /  0.0mm 359 W/m2
16:19 71.2 °F /  21.8 °C 56.1 °F /  13.4 °C 29.8in /  1010.2hPa NW 4mph /  6.4km/h 5mph /  8km/h 59% 0in /  0.0mm 330 W/m2
16:35 71.4 °F /  21.9 °C 55.4 °F /  13 °C 29.8in /  1009.8hPa Calm   3mph /  4.8km/h 57% 0in /  0.0mm 633 W/m2
16:40 71.6 °F /  22 °C 55.6 °F /  13.1 °C 29.8in /  1010.2hPa WNW 4.9mph /  7.9km/h 9mph /  14.5km/h 57% 0in /  0.0mm 404 W/m2
16:45 71.4 °F /  21.9 °C 55.9 °F /  13.3 °C 29.8in /  1010.2hPa Calm   2mph /  3.2km/h 58% 0in /  0.0mm 545 W/m2
16:50 72 °F /  22.2 °C 56.3 °F /  13.5 °C 29.8in /  1010.2hPa NW 4mph /  6.4km/h 9mph /  14.5km/h 58% 0in /  0.0mm 255 W/m2
16:55 71.4 °F /  21.9 °C 55.9 °F /  13.3 °C 29.8in /  1010.2hPa WNW 4mph /  6.4km/h 8mph /  12.9km/h 58% 0in /  0.0mm 304 W/m2
17:00 71.2 °F /  21.8 °C 56.1 °F /  13.4 °C 29.8in /  1010.2hPa WNW 2.9mph /  4.7km/h 5mph /  8km/h 59% 0in /  0.0mm 390 W/m2
17:05 71.2 °F /  21.8 °C 57 °F /  13.9 °C 29.8in /  1010.2hPa WNW 0.9mph /  1.4km/h 8mph /  12.9km/h 61% 0in /  0.0mm 325 W/m2
17:10 71.4 °F /  21.9 °C 56.8 °F /  13.8 °C 29.8in /  1010.2hPa NW 0.9mph /  1.4km/h 2mph /  3.2km/h 60% 0in /  0.0mm 297 W/m2
17:15 71.4 °F /  21.9 °C 55.9 °F /  13.3 °C 29.8in /  1010.2hPa WSW 10.1mph /  16.3km/h 10mph /  16.1km/h 58% 0in /  0.0mm 285 W/m2
17:20 71.1 °F /  21.7 °C 55.6 °F /  13.1 °C 29.8in /  1010.2hPa Calm   3mph /  4.8km/h 58% 0in /  0.0mm 246 W/m2
17:25 70.7 °F /  21.5 °C 55.2 °F /  12.9 °C 29.8in /  1010.2hPa West 4mph /  6.4km/h 7mph /  11.3km/h 58% 0in /  0.0mm 236 W/m2
17:30 70.5 °F /  21.4 °C 55 °F /  12.8 °C 29.8in /  1009.8hPa West 6mph /  9.7km/h 8mph /  12.9km/h 58% 0in /  0.0mm 316 W/m2
17:50 70.7 °F /  21.5 °C 55.6 °F /  13.1 °C 29.8in /  1009.8hPa WSW 4mph /  6.4km/h 7mph /  11.3km/h 59% 0in /  0.0mm 323 W/m2
17:55 70.7 °F /  21.5 °C 56.1 °F /  13.4 °C 29.8in /  1009.8hPa WNW 6.9mph /  11.1km/h 7mph /  11.3km/h 60% 0in /  0.0mm 364 W/m2
18:00 70.9 °F /  21.6 °C 55.4 °F /  13 °C 29.8in /  1009.8hPa WSW 2.9mph /  4.7km/h 4mph /  6.4km/h 58% 0in /  0.0mm 260 W/m2
18:05 71.1 °F /  21.7 °C 55.9 °F /  13.3 °C 29.8in /  1009.8hPa Calm   2mph /  3.2km/h 59% 0in /  0.0mm 251 W/m2
18:10 71.1 °F /  21.7 °C 56.5 °F /  13.6 °C 29.8in /  1009.5hPa WNW 2mph /  3.2km/h 6mph /  9.7km/h 60% 0in /  0.0mm 246 W/m2
18:29 70.5 °F /  21.4 °C 56.5 °F /  13.6 °C 29.8in /  1009.5hPa West 2.9mph /  4.7km/h 3mph /  4.8km/h 61% 0in /  0.0mm 211 W/m2
18:34 70.5 °F /  21.4 °C 55.9 °F /  13.3 °C 29.8in /  1009.5hPa West 6mph /  9.7km/h 7mph /  11.3km/h 60% 0in /  0.0mm 197 W/m2
18:39 70.5 °F /  21.4 °C 55.9 °F /  13.3 °C 29.8in /  1009.5hPa Calm   4mph /  6.4km/h 60% 0in /  0.0mm 186 W/m2
18:44 70.5 °F /  21.4 °C 55.9 °F /  13.3 °C 29.8in /  1009.1hPa NW 0.9mph /  1.4km/h 2mph /  3.2km/h 60% 0in /  0.0mm 218 W/m2
18:49 70.5 °F /  21.4 °C 56.5 °F /  13.6 °C 29.8in /  1009.1hPa West 2.9mph /  4.7km/h 4mph /  6.4km/h 61% 0in /  0.0mm 169 W/m2
18:54 70.5 °F /  21.4 °C 56.8 °F /  13.8 °C 29.8in /  1009.5hPa WSW 2mph /  3.2km/h 2mph /  3.2km/h 62% 0in /  0.0mm 142 W/m2
18:59 70.5 °F /  21.4 °C 56.8 °F /  13.8 °C 29.8in /  1009.1hPa SW 0.9mph /  1.4km/h 2mph /  3.2km/h 62% 0in /  0.0mm 156 W/m2
19:04 70.3 °F /  21.3 °C 55.8 °F /  13.2 °C 29.8in /  1009.1hPa WNW 0.9mph /  1.4km/h 6mph /  9.7km/h 60% 0in /  0.0mm 151 W/m2
19:09 70.2 °F /  21.2 °C 55.6 °F /  13.1 °C 29.8in /  1009.1hPa West 0.9mph /  1.4km/h 4mph /  6.4km/h 60% 0in /  0.0mm 139 W/m2
19:14 70.2 °F /  21.2 °C 56.5 °F /  13.6 °C 29.8in /  1009.5hPa West 2mph /  3.2km/h 3mph /  4.8km/h 62% 0in /  0.0mm 137 W/m2
19:19 70.2 °F /  21.2 °C 57.4 °F /  14.1 °C 29.8in /  1009.5hPa Calm   1mph /  1.6km/h 64% 0in /  0.0mm 125 W/m2
19:24 70.2 °F /  21.2 °C 56.5 °F /  13.6 °C 29.8in /  1009.5hPa NW 0.9mph /  1.4km/h 3mph /  4.8km/h 62% 0in /  0.0mm 123 W/m2
19:29 70.2 °F /  21.2 °C 57.9 °F /  14.4 °C 29.8in /  1009.5hPa Calm   1mph /  1.6km/h 65% 0in /  0.0mm 146 W/m2
19:34 70.3 °F /  21.3 °C 56.3 °F /  13.5 °C 29.8in /  1009.5hPa NW 0.9mph /  1.4km/h 2mph /  3.2km/h 61% 0in /  0.0mm 137 W/m2
19:39 70.3 °F /  21.3 °C 56.3 °F /  13.5 °C 29.8in /  1009.5hPa West 0.9mph /  1.4km/h 2mph /  3.2km/h 61% 0in /  0.0mm 125 W/m2
19:44 70.2 °F /  21.2 °C 56.5 °F /  13.6 °C 29.8in /  1009.5hPa WSW 2mph /  3.2km/h 3mph /  4.8km/h 62% 0in /  0.0mm 109 W/m2
19:49 70 °F /  21.1 °C 57.2 °F /  14 °C 29.8in /  1009.5hPa West 0.9mph /  1.4km/h 1mph /  1.6km/h 64% 0in /  0.0mm 111 W/m2
19:54 69.6 °F /  20.9 °C 55.9 °F /  13.3 °C 29.8in /  1009.5hPa West 0.9mph /  1.4km/h 3mph /  4.8km/h 62% 0in /  0.0mm 102 W/m2
20:12 68.9 °F /  20.5 °C 56.3 °F /  13.5 °C 29.8in /  1009.5hPa Calm   2mph /  3.2km/h 64% 0in /  0.0mm 56 W/m2
20:17 68.7 °F /  20.4 °C 56.5 °F /  13.6 °C 29.8in /  1009.5hPa WSW 2mph /  3.2km/h 2mph /  3.2km/h 65% 0in /  0.0mm 47 W/m2
20:22 68.5 °F /  20.3 °C 57.2 °F /  14 °C 29.8in /  1009.5hPa Calm   1mph /  1.6km/h 67% 0in /  0.0mm 42 W/m2
20:27 68.4 °F /  20.2 °C 57.7 °F /  14.3 °C 29.8in /  1009.5hPa Calm   1mph /  1.6km/h 69% 0in /  0.0mm 35 W/m2
20:32 68 °F /  20 °C 57.4 °F /  14.1 °C 29.8in /  1009.5hPa Calm     69% 0in /  0.0mm 32 W/m2
20:37 67.6 °F /  19.8 °C 57.6 °F /  14.2 °C 29.8in /  1009.5hPa Calm     70% 0in /  0.0mm 26 W/m2
20:42 67.3 °F /  19.6 °C 57.6 °F /  14.2 °C 29.8in /  1009.5hPa Calm     71% 0in /  0.0mm 23 W/m2
20:47 66.9 °F /  19.4 °C 57.2 °F /  14 °C 29.8in /  1009.5hPa Calm     71% 0in /  0.0mm 18 W/m2
20:52 66.7 °F /  19.3 °C 57 °F /  13.9 °C 29.8in /  1009.8hPa Calm   1mph /  1.6km/h 71% 0in /  0.0mm 12 W/m2
20:57 66.4 °F /  19.1 °C 56.7 °F /  13.7 °C 29.8in /  1009.8hPa Calm     71% 0in /  0.0mm 11 W/m2
21:18 65.1 °F /  18.4 °C 55.9 °F /  13.3 °C 29.8in /  1009.8hPa Calm     72% 0in /  0.0mm 5 W/m2
21:23 65.1 °F /  18.4 °C 55.4 °F /  13 °C 29.8in /  1009.8hPa WNW 2.9mph /  4.7km/h 3mph /  4.8km/h 71% 0in /  0.0mm 0 W/m2
21:28 64.9 °F /  18.3 °C 54.9 °F /  12.7 °C 29.8in /  1009.8hPa West 2mph /  3.2km/h 4mph /  6.4km/h 70% 0in /  0.0mm 0 W/m2
21:33 65.1 °F /  18.4 °C 54.7 °F /  12.6 °C 29.8in /  1009.8hPa WNW 0.9mph /  1.4km/h 6mph /  9.7km/h 69% 0in /  0.0mm 0 W/m2
21:50 65.7 °F /  18.7 °C 55.2 °F /  12.9 °C 29.8in /  1009.8hPa WNW 0.9mph /  1.4km/h 4mph /  6.4km/h 69% 0in /  0.0mm 0 W/m2
21:55 65.5 °F /  18.6 °C 55 °F /  12.8 °C 29.8in /  1009.8hPa West 2mph /  3.2km/h 3mph /  4.8km/h 69% 0in /  0.0mm 0 W/m2
22:00 65.5 °F /  18.6 °C 55 °F /  12.8 °C 29.8in /  1009.8hPa West 0.9mph /  1.4km/h 4mph /  6.4km/h 69% 0in /  0.0mm 0 W/m2
22:05 65.5 °F /  18.6 °C 55.4 °F /  13 °C 29.8in /  1009.5hPa WNW 0.9mph /  1.4km/h 3mph /  4.8km/h 70% 0in /  0.0mm 0 W/m2
22:10 65.1 °F /  18.4 °C 55 °F /  12.8 °C 29.8in /  1009.5hPa WSW 2mph /  3.2km/h 4mph /  6.4km/h 70% 0in /  0.0mm 0 W/m2
22:15 65.1 °F /  18.4 °C 55 °F /  12.8 °C 29.8in /  1009.5hPa West 4mph /  6.4km/h 5mph /  8km/h 70% 0in /  0.0mm 0 W/m2
22:20 64.9 °F /  18.3 °C 54.9 °F /  12.7 °C 29.8in /  1009.5hPa WNW 2mph /  3.2km/h 6mph /  9.7km/h 70% 0in /  0.0mm 0 W/m2
22:25 64.9 °F /  18.3 °C 54.9 °F /  12.7 °C 29.8in /  1009.5hPa West 2mph /  3.2km/h 4mph /  6.4km/h 70% 0in /  0.0mm 0 W/m2
22:30 64.8 °F /  18.2 °C 55.2 °F /  12.9 °C 29.8in /  1009.5hPa WNW 0.9mph /  1.4km/h 4mph /  6.4km/h 71% 0in /  0.0mm 0 W/m2
22:35 64.8 °F /  18.2 °C 55.2 °F /  12.9 °C 29.8in /  1009.5hPa WSW 0.9mph /  1.4km/h 7mph /  11.3km/h 71% 0in /  0.0mm 0 W/m2
22:40 64.6 °F /  18.1 °C 55 °F /  12.8 °C 29.8in /  1009.5hPa West 2mph /  3.2km/h 5mph /  8km/h 71% 0in /  0.0mm 0 W/m2
22:45 64.6 °F /  18.1 °C 55.4 °F /  13 °C 29.8in /  1009.8hPa WNW 2mph /  3.2km/h 6mph /  9.7km/h 72% 0in /  0.0mm 0 W/m2
22:50 64.4 °F /  18 °C 55.6 °F /  13.1 °C 29.8in /  1009.8hPa West 2.9mph /  4.7km/h 7mph /  11.3km/h 73% 0in /  0.0mm 0 W/m2
22:55 64.4 °F /  18 °C 55.6 °F /  13.1 °C 29.8in /  1010.2hPa West 2.9mph /  4.7km/h 4mph /  6.4km/h 73% 0in /  0.0mm 0 W/m2
23:00 64.2 °F /  17.9 °C 55.8 °F /  13.2 °C 29.8in /  1009.8hPa West 2.9mph /  4.7km/h 4mph /  6.4km/h 74% 0in /  0.0mm 0 W/m2
23:05 64 °F /  17.8 °C 55.6 °F /  13.1 °C 29.8in /  1009.8hPa West 2mph /  3.2km/h 3mph /  4.8km/h 74% 0in /  0.0mm 0 W/m2
23:10 63.9 °F /  17.7 °C 55.4 °F /  13 °C 29.8in /  1009.8hPa West 2mph /  3.2km/h 4mph /  6.4km/h 74% 0in /  0.0mm 0 W/m2
23:15 63.7 °F /  17.6 °C 55.6 °F /  13.1 °C 29.8in /  1009.8hPa West 2mph /  3.2km/h 3mph /  4.8km/h 75% 0in /  0.0mm 0 W/m2
23:20 63.3 °F /  17.4 °C 55.6 °F /  13.1 °C 29.8in /  1009.8hPa West 2mph /  3.2km/h 4mph /  6.4km/h 76% 0in /  0.0mm 0 W/m2
23:25 63 °F /  17.2 °C 55.6 °F /  13.1 °C 29.8in /  1009.8hPa West 2mph /  3.2km/h 2mph /  3.2km/h 77% 0in /  0.0mm 0 W/m2
23:30 62.8 °F /  17.1 °C 55.8 °F /  13.2 °C 29.8in /  1009.8hPa Calm   2mph /  3.2km/h 78% 0in /  0.0mm 0 W/m2
23:35 62.6 °F /  17 °C 55.9 °F /  13.3 °C 29.8in /  1009.8hPa WSW 0.9mph /  1.4km/h 2mph /  3.2km/h 79% 0in /  0.0mm 0 W/m2
23:40 62.4 °F /  16.9 °C 55.8 °F /  13.2 °C 29.8in /  1009.8hPa Calm   2mph /  3.2km/h 79% 0in /  0.0mm 0 W/m2
23:45 62.2 °F /  16.8 °C 55.6 °F /  13.1 °C 29.8in /  1009.5hPa WSW 0.9mph /  1.4km/h 1mph /  1.6km/h 79% 0in /  0.0mm 0 W/m2
23:50 62.2 °F /  16.8 °C 55.9 °F /  13.3 °C 29.8in /  1009.8hPa Calm   2mph /  3.2km/h 80% 0in /  0.0mm 0 W/m2
23:55 62.1 °F /  16.7 °C 55.8 °F /  13.2 °C 29.8in /  1009.8hPa Calm   1mph /  1.6km/h 80% 0in /  0.0mm 0 W/m2
Juneau County Weather
Compliments of Weather Underground - 4 mb